This is the latest recevied weather packets stored in our database for station/object W4ZHA. If no packets are shown the sender has not sent any weather packets the latest 10 day(s).
| Time | Temp. | Humidity | Pressure | Rain* | Wind** | Luminosity | Snow |
|---|---|---|---|---|---|---|---|
| 1788045028 | 28.89° C | 63% | 1019 hPa | 0 mm | - | 31 W/m² | - |
| 1788044726 | 28.89° C | 63% | 1018.6 hPa | 0 mm | - | 40 W/m² | - |
| 1788044422 | 28.89° C | 63% | 1019 hPa | 0 mm | - | 39 W/m² | - |
| 1788044121 | 28.89° C | 64% | 1019 hPa | 0 mm | - | 83 W/m² | - |
| 1788043818 | 28.89° C | 63% | 1019 hPa | 0 mm | - | 24 W/m² | - |
| 1788043513 | 28.89° C | 64% | 1019 hPa | 0 mm | - | 30 W/m² | - |
| 1788043207 | 28.89° C | 63% | 1019 hPa | 0 mm | - | 33 W/m² | - |
| 1788042902 | 28.89° C | 62% | 1018.6 hPa | 0 mm | - | 30 W/m² | - |
| 1788042602 | 28.89° C | 62% | 1019 hPa | 0 mm | - | 35 W/m² | - |
| 1788042296 | 28.89° C | 62% | 1018.6 hPa | 0 mm | - | 51 W/m² | - |
| 1788041992 | 28.89° C | 63% | 1018.6 hPa | 0 mm | - | 62 W/m² | - |
| 1788041687 | 28.89° C | 64% | 1018.6 hPa | 0 mm | - | 82 W/m² | - |
| 1788041382 | 29.44° C | 61% | 1018.6 hPa | 0 mm | - | 107 W/m² | - |
| 1788041081 | 29.44° C | 62% | 1018.6 hPa | 0 mm | - | 94 W/m² | - |
| 1788040780 | 30.56° C | 59% | 1019 hPa | 0 mm | - | 106 W/m² | - |
| 1788040468 | 31.11° C | 57% | 1018.6 hPa | 0 mm | - | 391 W/m² | - |
| 1788040165 | 32.22° C | 54% | 1018.6 hPa | 0 mm | - | 395 W/m² | - |
| 1788039858 | 32.22° C | 53% | 1018.6 hPa | 0 mm | - | 403 W/m² | - |
| 1788039553 | 32.78° C | 52% | 1018.6 hPa | 0 mm | - | 386 W/m² | - |
| 1788039249 | 32.78° C | 52% | 1018.6 hPa | 0 mm | - | 393 W/m² | - |
| 1788038943 | 33.89° C | 47% | 1018.6 hPa | 0 mm | - | 396 W/m² | - |
| 1788038639 | 32.22° C | 49% | 1018.6 hPa | 0 mm | - | 395 W/m² | - |
| 1788038337 | 33.89° C | 47% | 1018.6 hPa | 0 mm | - | 383 W/m² | - |
| 1788038028 | 32.78° C | 47% | 1018.6 hPa | 0 mm | - | 382 W/m² | - |
| 1788037728 | 31.11° C | 55% | 1019 hPa | 0 mm | - | 127 W/m² | - |
* Rain latest hour (hover to see other rain measurements)
** Current wind speed in m/s (hover to see current wind gust speed)